createdAt,value
2023-03-10T00:03:35.252Z,11.02
2023-03-10T00:07:38.352Z,10.95
2023-03-10T00:11:41.388Z,10.84
2023-03-10T00:15:44.420Z,10.75
2023-03-10T00:19:48.998Z,10.85
2023-03-10T00:23:52.426Z,10.84
2023-03-10T00:27:55.450Z,10.77
2023-03-10T00:31:58.772Z,10.70
2023-03-10T00:36:14.597Z,10.70
2023-03-10T00:40:18.289Z,10.68
2023-03-10T00:44:21.340Z,10.66
2023-03-10T00:48:26.462Z,10.64
2023-03-10T00:52:34.792Z,10.61
2023-03-10T00:56:38.284Z,10.60
2023-03-10T01:00:41.586Z,10.56
2023-03-10T01:04:44.709Z,10.57
2023-03-10T01:08:49.456Z,10.48
2023-03-10T01:12:52.445Z,10.44
2023-03-10T01:16:56.007Z,10.37
2023-03-10T01:20:59.114Z,10.29
2023-03-10T01:25:03.489Z,10.22
2023-03-10T01:29:06.851Z,10.23
2023-03-10T01:33:11.436Z,10.16
2023-03-10T01:37:14.546Z,10.14
2023-03-10T01:41:20.179Z,10.14
2023-03-10T01:46:00.316Z,10.17
2023-03-10T01:50:08.146Z,10.10
2023-03-10T01:54:18.114Z,10.08
2023-03-10T01:58:26.023Z,10.11
2023-03-10T02:02:34.516Z,10.08
2023-03-10T02:06:39.055Z,10.03
2023-03-10T02:10:42.242Z,10.00
2023-03-10T02:14:48.809Z,10.05
2023-03-10T02:18:52.054Z,10.06
2023-03-10T02:22:55.342Z,10.06
2023-03-10T02:27:03.399Z,10.00
2023-03-10T02:31:09.136Z,10.01
2023-03-10T02:35:13.476Z,9.96
2023-03-10T02:39:25.417Z,9.97
2023-03-10T02:43:31.146Z,9.91
2023-03-10T02:47:42.552Z,9.89
2023-03-10T02:51:47.740Z,9.89
2023-03-10T02:55:54.283Z,9.88
2023-03-10T02:59:57.588Z,9.83
2023-03-10T03:04:02.803Z,9.80
2023-03-10T03:08:07.949Z,9.78
2023-03-10T03:12:11.237Z,9.88
2023-03-10T03:16:14.786Z,9.89
2023-03-10T03:20:21.720Z,9.85
2023-03-10T03:24:26.772Z,9.91
2023-03-10T03:28:30.180Z,9.90
2023-03-10T03:32:33.548Z,9.98
2023-03-10T03:36:38.178Z,10.01
2023-03-10T03:40:45.180Z,10.04
2023-03-10T03:44:50.628Z,10.07
2023-03-10T03:48:53.880Z,10.00
2023-03-10T03:52:58.650Z,10.02
2023-03-10T03:57:05.434Z,9.97
2023-03-10T04:01:08.719Z,9.98
2023-03-10T04:05:18.183Z,9.94
2023-03-10T04:09:23.052Z,9.93
2023-03-10T04:13:26.400Z,9.89
2023-03-10T04:17:29.665Z,9.95
2023-03-10T04:21:32.783Z,9.89
2023-03-10T04:25:37.497Z,9.85
2023-03-10T04:29:40.650Z,9.87
2023-03-10T04:33:43.872Z,9.88
2023-03-10T04:37:47.074Z,9.86
2023-03-10T04:41:52.511Z,9.92
2023-03-10T04:45:56.213Z,9.93
2023-03-10T04:49:59.681Z,9.95
2023-03-10T04:54:02.946Z,9.98
2023-03-10T04:58:09.695Z,9.99
2023-03-10T05:02:13.376Z,9.99
2023-03-10T05:06:20.136Z,10.02
2023-03-10T05:10:47.736Z,10.00
2023-03-10T05:14:52.200Z,10.04
2023-03-10T05:18:55.496Z,10.05
2023-03-10T05:23:02.733Z,10.00
2023-03-10T05:27:08.298Z,9.85
2023-03-10T05:31:16.988Z,9.84
2023-03-10T05:35:23.803Z,9.76
2023-03-10T05:39:27.632Z,9.67
2023-03-10T05:43:32.724Z,9.55
2023-03-10T05:47:37.360Z,9.54
2023-03-10T05:51:41.380Z,9.47
2023-03-10T05:55:44.556Z,9.44
2023-03-10T05:59:47.740Z,9.46
2023-03-10T06:03:52.940Z,9.50
2023-03-10T06:07:56.196Z,9.48
2023-03-10T06:11:59.714Z,9.48
2023-03-10T06:16:04.701Z,9.53
2023-03-10T06:20:10.242Z,9.52
2023-03-10T06:24:13.460Z,9.47
2023-03-10T06:28:16.537Z,9.44
2023-03-10T06:32:19.664Z,9.42
2023-03-10T06:36:26.224Z,9.36
2023-03-10T06:40:29.334Z,9.35
2023-03-10T06:44:32.560Z,9.37
2023-03-10T06:48:36.777Z,9.37
2023-03-10T06:52:42.698Z,9.42
2023-03-10T06:56:45.720Z,9.49
2023-03-10T07:00:48.756Z,9.54
2023-03-10T07:04:51.827Z,9.53
2023-03-10T07:08:56.901Z,9.51
2023-03-10T07:13:00.004Z,9.52
2023-03-10T07:17:04.176Z,9.57
2023-03-10T07:21:09.791Z,9.58
2023-03-10T07:25:14.394Z,9.65
2023-03-10T07:29:17.860Z,9.69
2023-03-10T07:33:21.109Z,9.78
2023-03-10T07:37:24.204Z,9.86
2023-03-10T07:41:28.712Z,9.96
2023-03-10T07:45:33.612Z,10.00
2023-03-10T07:49:36.948Z,10.11
2023-03-10T07:53:40.382Z,10.16
2023-03-10T07:57:45.056Z,10.22
2023-03-10T08:01:48.184Z,10.19
2023-03-10T08:05:51.340Z,10.27
2023-03-10T08:09:55.393Z,10.38
2023-03-10T08:13:59.969Z,10.52
2023-03-10T08:18:05.518Z,10.51
2023-03-10T08:22:10.290Z,10.62
2023-03-10T08:26:15.929Z,10.75
2023-03-10T08:30:20.656Z,10.91
2023-03-10T08:34:24.993Z,11.59
2023-03-10T08:38:28.167Z,11.48
2023-03-10T08:42:31.449Z,11.31
2023-03-10T08:46:36.015Z,11.39
2023-03-10T08:50:39.325Z,11.65
2023-03-10T08:54:42.551Z,11.80
2023-03-10T08:58:46.442Z,11.79
2023-03-10T09:02:51.100Z,12.03
2023-03-10T09:06:54.299Z,12.89
2023-03-10T09:10:57.550Z,12.98
2023-03-10T09:15:01.761Z,12.37
2023-03-10T09:19:07.212Z,12.27
2023-03-10T09:23:11.924Z,12.23
2023-03-10T09:27:15.045Z,12.24
2023-03-10T09:31:20.788Z,12.21
2023-03-10T09:35:25.765Z,12.22
2023-03-10T09:39:28.909Z,12.17
2023-03-10T09:43:38.147Z,12.42
2023-03-10T09:47:49.628Z,12.29
2023-03-10T09:51:54.041Z,12.34
2023-03-10T09:55:58.446Z,12.07
2023-03-10T10:00:05.669Z,11.90
2023-03-10T10:04:13.805Z,12.04
2023-03-10T10:08:25.596Z,12.50
2023-03-10T10:12:30.193Z,12.35
2023-03-10T10:16:42.661Z,12.08
2023-03-10T10:20:53.850Z,12.18
2023-03-10T10:25:12.080Z,12.21
2023-03-10T10:29:19.352Z,12.05
2023-03-10T10:33:22.467Z,11.92
2023-03-10T10:37:29.945Z,11.96
2023-03-10T10:41:36.346Z,11.68
2023-03-10T10:45:41.257Z,11.67
2023-03-10T10:49:45.202Z,11.21
2023-03-10T10:53:48.591Z,10.76
2023-03-10T10:58:00.451Z,10.56
2023-03-10T11:02:23.256Z,10.27
2023-03-10T11:06:29.251Z,10.05
2023-03-10T11:10:34.768Z,9.85
2023-03-10T11:14:49.535Z,9.75
2023-03-10T11:18:59.585Z,9.70
2023-03-10T11:23:13.373Z,9.71
2023-03-10T11:27:24.955Z,9.76
2023-03-10T11:31:40.229Z,9.80
2023-03-10T11:35:45.995Z,9.80
2023-03-10T11:39:57.970Z,9.76
2023-03-10T11:44:08.282Z,9.66
2023-03-10T11:48:29.127Z,9.65
2023-03-10T11:52:35.131Z,9.65
2023-03-10T11:56:39.893Z,9.63
2023-03-10T12:00:44.591Z,9.55
2023-03-10T12:04:55.185Z,9.63
2023-03-10T12:09:01.209Z,9.63
2023-03-10T12:13:04.801Z,9.57
2023-03-10T12:17:12.045Z,9.55
2023-03-10T12:21:22.234Z,9.60
2023-03-10T12:25:46.151Z,9.63
2023-03-10T12:29:49.742Z,9.66
2023-03-10T12:33:54.250Z,9.71
2023-03-10T12:38:31.498Z,9.68
2023-03-10T12:42:35.727Z,9.76
2023-03-10T12:46:45.400Z,9.76
2023-03-10T12:50:56.310Z,9.82
2023-03-10T12:55:17.727Z,9.92
2023-03-10T12:59:30.338Z,9.99
2023-03-10T13:03:38.362Z,10.10
2023-03-10T13:07:47.340Z,10.18
2023-03-10T13:11:55.617Z,10.23
2023-03-10T13:15:59.851Z,10.37
2023-03-10T13:20:08.569Z,10.44
2023-03-10T13:24:23.793Z,10.46
2023-03-10T13:28:30.569Z,10.28
2023-03-10T13:32:34.469Z,9.71
2023-03-10T13:36:39.582Z,9.39
2023-03-10T13:40:45.624Z,9.14
2023-03-10T13:44:50.618Z,9.01
2023-03-10T13:48:54.804Z,8.89
2023-03-10T13:53:00.258Z,8.80
2023-03-10T13:57:12.008Z,8.66
2023-03-10T14:01:25.679Z,8.44
2023-03-10T14:05:41.636Z,8.19
2023-03-10T14:09:44.858Z,8.02
2023-03-10T14:13:48.034Z,7.92
2023-03-10T14:17:54.353Z,7.93
2023-03-10T14:22:01.923Z,7.87
2023-03-10T14:26:11.690Z,7.82
2023-03-10T14:30:24.055Z,7.74
2023-03-10T14:34:28.776Z,7.68
2023-03-10T14:38:31.977Z,7.57
2023-03-10T14:42:35.988Z,7.52
2023-03-10T14:46:39.292Z,7.49
2023-03-10T14:50:44.137Z,7.47
2023-03-10T14:54:47.673Z,7.44
2023-03-10T14:58:53.520Z,7.38
2023-03-10T15:02:58.546Z,7.31
2023-03-10T15:07:03.044Z,7.27
2023-03-10T15:11:07.217Z,7.23
2023-03-10T15:15:17.625Z,7.21
2023-03-10T15:19:23.523Z,7.18
2023-03-10T15:23:28.900Z,7.14
2023-03-10T15:27:32.148Z,7.14
2023-03-10T15:31:35.383Z,7.13
2023-03-10T15:35:39.239Z,7.10
2023-03-10T15:39:43.796Z,7.11
2023-03-10T15:43:46.980Z,7.12
2023-03-10T15:47:50.236Z,6.12
2023-03-10T15:51:53.329Z,5.37
2023-03-10T15:55:57.801Z,4.83
2023-03-10T16:00:04.291Z,4.52
2023-03-10T16:04:08.101Z,4.32
2023-03-10T16:08:15.221Z,3.66
2023-03-10T16:12:22.393Z,3.23
2023-03-10T16:16:26.522Z,2.97
2023-03-10T16:20:29.947Z,2.69
2023-03-10T16:24:33.065Z,2.38
2023-03-10T16:28:39.632Z,1.84
2023-03-10T16:32:46.340Z,1.65
2023-03-10T16:36:51.495Z,1.55
2023-03-10T16:40:55.166Z,1.49
2023-03-10T16:44:59.713Z,1.38
2023-03-10T16:49:03.260Z,1.35
2023-03-10T16:53:06.735Z,1.29
2023-03-10T16:57:11.979Z,1.16
2023-03-10T17:01:16.564Z,1.07
2023-03-10T17:05:19.988Z,1.12
2023-03-10T17:09:23.292Z,1.13
2023-03-10T17:13:26.614Z,1.12
2023-03-10T17:17:32.590Z,1.08
2023-03-10T17:21:40.487Z,1.11
2023-03-10T17:25:43.880Z,1.17
2023-03-10T17:29:47.177Z,1.12
2023-03-10T17:33:51.690Z,1.21
2023-03-10T17:37:56.448Z,1.24
2023-03-10T17:41:59.777Z,1.24
2023-03-10T17:46:04.619Z,1.23
2023-03-10T17:50:10.707Z,1.28
2023-03-10T17:54:16.072Z,1.37
2023-03-10T17:58:21.003Z,1.36
2023-03-10T18:02:24.239Z,1.36
2023-03-10T18:06:30.316Z,1.43
2023-03-10T18:10:35.611Z,1.32
2023-03-10T18:14:38.918Z,1.35
2023-03-10T18:18:42.158Z,1.39
2023-03-10T18:22:48.392Z,1.37
2023-03-10T18:26:51.610Z,1.35
2023-03-10T18:30:54.845Z,1.41
2023-03-10T18:34:59.432Z,1.47
2023-03-10T18:39:05.152Z,1.47
2023-03-10T18:43:08.687Z,1.50
2023-03-10T18:47:11.880Z,1.54
2023-03-10T18:51:16.012Z,1.51
2023-03-10T18:55:20.618Z,1.55
2023-03-10T18:59:23.952Z,1.57
2023-03-10T19:03:30.100Z,1.57
2023-03-10T19:07:36.646Z,1.60
2023-03-10T19:11:41.478Z,1.55
2023-03-10T19:15:44.743Z,1.53
2023-03-10T19:19:47.981Z,1.50
2023-03-10T19:23:51.240Z,1.56
2023-03-10T19:27:55.823Z,1.51
2023-03-10T19:31:59.729Z,1.49
2023-03-10T19:36:04.615Z,1.53
2023-03-10T19:40:11.243Z,1.61
2023-03-10T19:44:15.792Z,1.56
2023-03-10T19:48:18.940Z,1.60
2023-03-10T19:52:22.388Z,1.49
2023-03-10T19:56:26.554Z,1.28
2023-03-10T20:00:36.157Z,1.11
2023-03-10T20:04:39.972Z,1.15
2023-03-10T20:08:43.182Z,1.07
2023-03-10T20:12:47.296Z,1.08
2023-03-10T20:16:52.303Z,1.13
2023-03-10T20:20:55.416Z,1.10
2023-03-10T20:25:02.298Z,1.11
2023-03-10T20:29:05.674Z,1.08
2023-03-10T20:33:10.250Z,1.05
2023-03-10T20:37:13.764Z,1.05
2023-03-10T20:41:21.182Z,1.07
2023-03-10T20:45:24.710Z,1.10
2023-03-10T20:49:29.459Z,1.14
2023-03-10T20:53:37.227Z,1.01
2023-03-10T20:57:40.357Z,0.99
2023-03-10T21:01:43.751Z,0.97
2023-03-10T21:05:48.490Z,0.95
2023-03-10T21:09:52.180Z,1.00
2023-03-10T21:13:55.533Z,0.96
2023-03-10T21:17:58.669Z,0.93
2023-03-10T21:22:03.556Z,1.02
2023-03-10T21:26:11.635Z,0.98
2023-03-10T21:30:16.000Z,0.92
2023-03-10T21:34:19.146Z,0.93
2023-03-10T21:38:24.120Z,0.99
2023-03-10T21:42:27.302Z,1.04
2023-03-10T21:46:30.967Z,1.05
2023-03-10T21:50:34.310Z,1.08
2023-03-10T21:54:38.814Z,1.10
2023-03-10T21:58:41.973Z,1.08
2023-03-10T22:02:45.257Z,1.05
2023-03-10T22:06:48.465Z,1.06
2023-03-10T22:10:53.134Z,1.08
2023-03-10T22:14:57.851Z,1.09
2023-03-10T22:19:03.684Z,1.11
2023-03-10T22:23:08.008Z,1.12
2023-03-10T22:27:12.569Z,1.18
2023-03-10T22:31:16.115Z,1.23
2023-03-10T22:35:20.131Z,1.24
2023-03-10T22:39:24.020Z,1.26
2023-03-10T22:43:31.529Z,1.26
2023-03-10T22:47:34.854Z,1.29
2023-03-10T22:51:38.201Z,1.30
2023-03-10T22:55:43.563Z,1.31
2023-03-10T22:59:48.105Z,1.34
2023-03-10T23:03:51.117Z,1.33
2023-03-10T23:07:55.009Z,1.27
2023-03-10T23:11:58.121Z,1.39
2023-03-10T23:16:02.551Z,1.38
2023-03-10T23:20:07.278Z,1.39
2023-03-10T23:24:10.681Z,1.41
2023-03-10T23:28:14.645Z,1.45
2023-03-10T23:32:19.373Z,1.47
2023-03-10T23:36:22.882Z,1.44
2023-03-10T23:40:28.062Z,1.43
2023-03-10T23:44:31.247Z,1.43
2023-03-10T23:48:35.818Z,1.41
2023-03-10T23:52:38.911Z,1.46
2023-03-10T23:56:42.193Z,1.47
